Mc Alester Regional Airport Mc Alester US
ICAO: KMLC
IATA: MLC
Category: Medium
Scheduled Services: No

Elevation: 770 ft
TransAlt. 18000 ft.

Airport Communications:
ASOS:135.125
FORT WORTH CNTR:132.2
RDO:122.65
CTAF/UNICOM:122.95

KMLC Zoom In..

If you have problems with the map follow the link
https://www.worldairports.se/pages/airport.php?
ICAO=KMLC

Runways:

(A) RW 02 length 5602 ft width 100 ft
LOC 108.30 / hdg 14

(B) RW 20 length 5602 ft width 100 ft
LOC 108.30 / hdg 194

Location; KMLC
Day. 16 / Time. 10.53 Zulu
* Altimeter: 30.11
* Temperature: 03° c. 37.4°f.
* Wind from: 040° Speed 04 kn.
Dewpoint: 01° c.
Visibility: 10 Statute Miles.
Clouds: Clear (automated report).

KMLC 161053Z AUTO 04004KT 10SM CLR 03/01 A3011 RMK AO2 SLP196 T00280006


Wind From 040°
Speed 04 kn.

 
 
jpsmedia.com for Web Design worldairports.se 2018   terms of use